createdAt,value
2023-06-11T00:03:13.316Z,2.17
2023-06-11T00:05:42.857Z,2.63
2023-06-11T00:08:11.847Z,2.45
2023-06-11T00:10:42.721Z,2.78
2023-06-11T00:13:11.802Z,2.15
2023-06-11T00:18:09.995Z,2.88
2023-06-11T00:20:41.917Z,2.72
2023-06-11T00:23:11.120Z,3.03
2023-06-11T00:28:10.972Z,2.40
2023-06-11T00:33:09.479Z,2.65
2023-06-11T00:38:08.776Z,3.10
2023-06-11T00:40:38.437Z,5.18
2023-06-11T00:43:09.707Z,4.95
2023-06-11T00:45:39.389Z,3.63
2023-06-11T00:50:46.256Z,2.60
2023-06-11T00:53:15.696Z,2.92
2023-06-11T00:55:45.497Z,3.20
2023-06-11T00:58:18.931Z,2.22
2023-06-11T01:00:50.758Z,3.22
2023-06-11T01:03:28.195Z,2.58
2023-06-11T01:06:03.715Z,3.45
2023-06-11T01:08:40.328Z,4.88
2023-06-11T01:11:15.129Z,5.95
2023-06-11T01:13:48.839Z,4.68
2023-06-11T01:16:35.436Z,6.93
2023-06-11T01:19:13.589Z,3.97
2023-06-11T01:21:48.580Z,3.45
2023-06-11T01:24:25.541Z,3.00
2023-06-11T01:27:09.551Z,3.08
2023-06-11T01:29:46.882Z,2.33
2023-06-11T01:32:19.876Z,3.53
2023-06-11T01:34:49.162Z,3.17
2023-06-11T01:37:22.469Z,2.65
2023-06-11T01:39:53.860Z,2.80
2023-06-11T01:42:34.999Z,2.65
2023-06-11T01:45:07.310Z,2.88
2023-06-11T01:47:38.197Z,3.03
2023-06-11T01:50:09.988Z,3.78
2023-06-11T01:52:39.634Z,3.67
2023-06-11T01:55:10.010Z,3.13
2023-06-11T01:57:41.573Z,3.35
2023-06-11T02:00:13.579Z,3.60
2023-06-11T02:02:48.926Z,3.17
2023-06-11T02:05:20.499Z,3.55
2023-06-11T02:07:51.054Z,5.15
2023-06-11T02:10:20.319Z,3.50
2023-06-11T02:15:21.456Z,4.35
2023-06-11T02:17:50.889Z,3.22
2023-06-11T02:20:20.175Z,3.33
2023-06-11T02:25:18.473Z,3.08
2023-06-11T02:27:48.960Z,3.40
2023-06-11T02:34:06.631Z,3.60
2023-06-11T02:36:36.326Z,4.00
2023-06-11T02:39:06.319Z,3.42
2023-06-11T02:41:36.378Z,3.85
2023-06-11T02:44:06.571Z,3.50
2023-06-11T02:46:36.036Z,3.45
2023-06-11T02:49:07.706Z,3.58
2023-06-11T02:51:37.150Z,4.00
2023-06-11T02:54:08.072Z,3.28
2023-06-11T02:56:37.734Z,3.63
2023-06-11T02:59:07.654Z,3.85
2023-06-11T03:01:36.970Z,3.47
2023-06-11T03:04:08.079Z,3.08
2023-06-11T03:06:37.629Z,3.90
2023-06-11T03:09:07.873Z,4.53
2023-06-11T03:11:37.940Z,4.20
2023-06-11T03:14:07.288Z,3.67
2023-06-11T03:16:36.793Z,3.83
2023-06-11T03:19:07.619Z,3.40
2023-06-11T03:21:37.149Z,3.03
2023-06-11T03:24:07.538Z,3.72
2023-06-11T03:26:36.967Z,4.03
2023-06-11T03:31:45.092Z,3.25
2023-06-11T03:34:16.128Z,4.03
2023-06-11T03:36:46.054Z,3.05
2023-06-11T03:39:19.263Z,3.38
2023-06-11T03:41:51.541Z,3.13
2023-06-11T03:44:22.858Z,2.97
2023-06-11T03:51:52.389Z,3.20
2023-06-11T03:54:21.820Z,2.45
2023-06-11T03:56:52.528Z,3.38
2023-06-11T03:59:21.919Z,2.55
2023-06-11T04:01:51.081Z,3.20
2023-06-11T04:04:22.057Z,3.05
2023-06-11T04:06:51.434Z,2.50
2023-06-11T04:09:21.361Z,3.05
2023-06-11T04:11:50.521Z,2.47
2023-06-11T04:14:20.503Z,2.35
2023-06-11T04:16:49.705Z,3.03
2023-06-11T04:19:19.493Z,2.47
2023-06-11T04:21:51.178Z,2.25
2023-06-11T04:24:20.703Z,2.15
2023-06-11T04:26:50.276Z,2.10
2023-06-11T04:29:20.473Z,1.88
2023-06-11T04:31:53.697Z,2.35
2023-06-11T04:34:30.115Z,1.88
2023-06-11T04:37:02.905Z,2.08
2023-06-11T04:39:32.986Z,2.08
2023-06-11T04:42:04.395Z,2.22
2023-06-11T04:44:34.517Z,2.17
2023-06-11T04:47:06.627Z,1.92
2023-06-11T04:49:38.940Z,2.47
2023-06-11T04:52:10.161Z,1.63
2023-06-11T04:54:42.701Z,2.15
2023-06-11T04:57:12.320Z,2.05
2023-06-11T04:59:41.654Z,2.17
2023-06-11T05:02:10.879Z,2.05
2023-06-11T05:04:41.016Z,2.03
2023-06-11T05:07:11.927Z,2.72
2023-06-11T05:09:45.823Z,2.08
2023-06-11T05:12:15.878Z,1.80
2023-06-11T05:14:46.547Z,2.03
2023-06-11T05:17:17.142Z,1.95
2023-06-11T05:19:49.001Z,2.75
2023-06-11T05:22:20.853Z,1.70
2023-06-11T05:24:50.332Z,1.40
2023-06-11T05:29:49.367Z,2.20
2023-06-11T05:32:19.210Z,2.53
2023-06-11T05:34:50.960Z,2.05
2023-06-11T05:37:23.558Z,1.83
2023-06-11T05:39:52.953Z,2.05
2023-06-11T05:42:23.936Z,1.58
2023-06-11T05:44:53.687Z,1.75
2023-06-11T05:47:23.297Z,1.85
2023-06-11T05:49:53.839Z,1.95
2023-06-11T05:52:24.574Z,1.98
2023-06-11T05:54:54.826Z,1.60
2023-06-11T05:59:55.026Z,1.60
2023-06-11T06:02:25.486Z,2.45
2023-06-11T06:04:56.094Z,1.88
2023-06-11T06:07:27.169Z,1.88
2023-06-11T06:09:57.504Z,1.65
2023-06-11T06:14:56.124Z,1.58
2023-06-11T06:17:25.874Z,1.98
2023-06-11T06:19:55.413Z,2.15
2023-06-11T06:22:26.811Z,2.10
2023-06-11T06:24:59.360Z,1.65
2023-06-11T06:27:32.708Z,1.92
2023-06-11T06:30:02.748Z,1.73
2023-06-11T06:32:33.725Z,2.25
2023-06-11T06:35:03.514Z,1.75
2023-06-11T06:37:34.047Z,2.20
2023-06-11T06:40:03.612Z,1.73
2023-06-11T06:42:32.895Z,1.60
2023-06-11T06:45:05.945Z,1.85
2023-06-11T06:47:35.533Z,2.22
2023-06-11T06:50:06.214Z,1.95
2023-06-11T06:52:36.932Z,1.80
2023-06-11T06:55:07.344Z,2.20
2023-06-11T06:57:36.591Z,1.38
2023-06-11T07:00:06.978Z,1.77
2023-06-11T07:02:36.676Z,2.10
2023-06-11T07:05:07.254Z,2.10
2023-06-11T07:07:40.935Z,2.10
2023-06-11T07:10:13.704Z,2.83
2023-06-11T07:12:43.344Z,1.65
2023-06-11T07:15:13.575Z,2.60
2023-06-11T07:17:42.800Z,1.80
2023-06-11T07:20:14.111Z,2.40
2023-06-11T07:22:45.434Z,2.00
2023-06-11T07:25:16.788Z,1.80
2023-06-11T07:27:45.989Z,2.17
2023-06-11T07:30:16.152Z,2.22
2023-06-11T07:32:45.459Z,2.25
2023-06-11T07:35:16.136Z,2.22
2023-06-11T07:37:47.231Z,1.70
2023-06-11T07:40:18.278Z,2.40
2023-06-11T07:42:49.111Z,2.20
2023-06-11T07:45:22.726Z,2.22
2023-06-11T07:47:53.842Z,2.05
2023-06-11T07:50:23.939Z,2.60
2023-06-11T07:52:54.486Z,2.25
2023-06-11T07:55:26.957Z,2.40
2023-06-11T07:57:56.097Z,2.30
2023-06-11T08:00:25.562Z,2.20
2023-06-11T08:02:55.998Z,2.55
2023-06-11T08:05:25.427Z,1.98
2023-06-11T08:07:55.956Z,1.83
2023-06-11T08:10:25.753Z,2.35
2023-06-11T08:12:54.927Z,2.72
2023-06-11T08:15:24.332Z,2.20
2023-06-11T08:17:53.622Z,2.22
2023-06-11T08:20:23.547Z,2.58
2023-06-11T08:22:54.159Z,2.58
2023-06-11T08:25:23.813Z,2.13
2023-06-11T08:27:53.170Z,2.30
2023-06-11T08:30:22.852Z,2.33
2023-06-11T08:32:53.012Z,2.40
2023-06-11T08:35:23.973Z,2.15
2023-06-11T08:37:54.556Z,2.05
2023-06-11T08:40:24.626Z,2.53
2023-06-11T08:42:53.901Z,2.55
2023-06-11T08:45:23.302Z,2.95
2023-06-11T08:47:52.795Z,2.42
2023-06-11T08:50:23.171Z,2.75
2023-06-11T08:52:54.589Z,2.50
2023-06-11T08:55:24.202Z,2.75
2023-06-11T08:57:53.423Z,2.38
2023-06-11T09:00:23.393Z,3.10
2023-06-11T09:02:53.133Z,2.50
2023-06-11T09:05:23.732Z,2.05
2023-06-11T09:07:54.886Z,3.42
2023-06-11T09:10:24.372Z,2.25
2023-06-11T09:12:56.033Z,3.35
2023-06-11T09:15:28.312Z,2.60
2023-06-11T09:17:57.720Z,2.40
2023-06-11T09:20:28.573Z,2.60
2023-06-11T09:22:59.076Z,2.40
2023-06-11T09:25:35.024Z,2.72
2023-06-11T09:28:08.511Z,2.80
2023-06-11T09:30:38.178Z,2.60
2023-06-11T09:33:18.353Z,2.30
2023-06-11T09:35:48.381Z,2.33
2023-06-11T09:38:19.480Z,2.45
2023-06-11T09:40:49.530Z,2.78
2023-06-11T09:43:22.478Z,2.40
2023-06-11T09:45:54.382Z,2.28
2023-06-11T09:48:24.353Z,2.42
2023-06-11T09:50:54.811Z,2.50
2023-06-11T09:53:26.062Z,2.67
2023-06-11T09:56:09.593Z,2.60
2023-06-11T09:58:42.081Z,2.35
2023-06-11T10:01:12.850Z,2.65
2023-06-11T10:03:42.329Z,2.95
2023-06-11T10:06:17.786Z,2.15
2023-06-11T10:08:51.936Z,2.25
2023-06-11T10:11:24.817Z,2.75
2023-06-11T10:14:00.412Z,1.88
2023-06-11T10:16:30.599Z,2.10
2023-06-11T10:19:10.378Z,1.75
2023-06-11T10:21:45.656Z,2.05
2023-06-11T10:24:24.852Z,1.92
2023-06-11T10:27:08.527Z,3.22
2023-06-11T10:29:42.313Z,2.17
2023-06-11T10:32:19.004Z,1.80
2023-06-11T10:34:50.218Z,1.73
2023-06-11T10:37:34.850Z,1.90
2023-06-11T10:40:07.213Z,2.50
2023-06-11T10:42:39.572Z,1.42
2023-06-11T10:45:10.490Z,2.20
2023-06-11T10:47:44.842Z,2.75
2023-06-11T10:50:18.022Z,3.05
2023-06-11T10:52:56.789Z,1.92
2023-06-11T10:55:30.651Z,1.60
2023-06-11T10:58:01.891Z,2.15
2023-06-11T11:00:34.238Z,1.83
2023-06-11T11:03:06.025Z,2.00
2023-06-11T11:05:35.294Z,2.10
2023-06-11T11:08:05.053Z,1.73
2023-06-11T11:10:35.688Z,2.30
2023-06-11T11:13:05.549Z,2.25
2023-06-11T11:15:34.748Z,1.77
2023-06-11T11:18:04.741Z,1.75
2023-06-11T11:20:34.755Z,1.85
2023-06-11T11:23:05.461Z,2.17
2023-06-11T11:25:35.936Z,1.70
2023-06-11T11:28:07.110Z,2.28
2023-06-11T11:30:36.326Z,2.50
2023-06-11T11:33:05.831Z,2.10
2023-06-11T11:35:35.128Z,2.80
2023-06-11T11:38:05.873Z,2.35
2023-06-11T11:40:39.892Z,1.73
2023-06-11T11:43:14.033Z,2.30
2023-06-11T11:45:48.782Z,2.20
2023-06-11T11:48:18.555Z,2.25
2023-06-11T11:50:51.877Z,1.83
2023-06-11T11:53:22.931Z,1.75
2023-06-11T11:56:05.286Z,1.70
2023-06-11T11:58:41.048Z,2.20
2023-06-11T12:01:23.038Z,1.90
2023-06-11T12:04:00.152Z,1.58
2023-06-11T12:06:31.406Z,1.90
2023-06-11T12:09:01.180Z,1.80
2023-06-11T12:11:31.926Z,2.08
2023-06-11T12:14:01.334Z,1.88
2023-06-11T12:16:30.601Z,1.77
2023-06-11T12:19:10.290Z,1.90
2023-06-11T12:21:49.909Z,2.00
2023-06-11T12:24:19.789Z,2.17
2023-06-11T12:26:53.122Z,1.45
2023-06-11T12:29:22.710Z,1.83
2023-06-11T12:31:51.902Z,1.70
2023-06-11T12:34:21.327Z,2.38
2023-06-11T12:36:53.184Z,1.83
2023-06-11T12:39:23.140Z,2.25
2023-06-11T12:41:53.975Z,1.70
2023-06-11T12:44:23.361Z,2.28
2023-06-11T12:46:52.401Z,1.52
2023-06-11T12:49:23.502Z,2.20
2023-06-11T12:51:53.044Z,2.40
2023-06-11T12:54:25.682Z,2.00
2023-06-11T12:56:56.260Z,2.17
2023-06-11T12:59:26.098Z,1.58
2023-06-11T13:01:55.366Z,1.83
2023-06-11T13:04:27.389Z,1.90
2023-06-11T13:07:01.846Z,1.70
2023-06-11T13:09:35.705Z,1.70
2023-06-11T13:12:07.254Z,2.00
2023-06-11T13:14:36.874Z,2.45
2023-06-11T13:17:08.043Z,1.73
2023-06-11T13:19:37.572Z,1.65
2023-06-11T13:22:08.243Z,1.60
2023-06-11T13:24:37.741Z,1.85
2023-06-11T13:27:09.198Z,1.60
2023-06-11T13:29:38.713Z,2.40
2023-06-11T13:32:08.899Z,1.80
2023-06-11T13:34:39.125Z,2.00
2023-06-11T13:37:08.623Z,1.98
2023-06-11T13:39:38.078Z,1.70
2023-06-11T13:42:09.400Z,1.80
2023-06-11T13:44:39.130Z,1.95
2023-06-11T13:47:09.497Z,1.27
2023-06-11T13:49:39.199Z,2.10
2023-06-11T13:52:09.089Z,2.22
2023-06-11T13:54:38.562Z,1.63
2023-06-11T13:57:09.710Z,1.92
2023-06-11T13:59:39.445Z,1.75
2023-06-11T14:02:09.147Z,2.15
2023-06-11T14:04:38.597Z,1.67
2023-06-11T14:07:07.684Z,2.05
2023-06-11T14:09:37.297Z,1.67
2023-06-11T14:12:09.205Z,1.63
2023-06-11T14:14:38.642Z,1.77
2023-06-11T14:17:09.175Z,1.60
2023-06-11T14:19:38.641Z,1.65
2023-06-11T14:22:08.114Z,1.70
2023-06-11T14:24:37.500Z,1.50
2023-06-11T14:27:10.041Z,1.38
2023-06-11T14:29:39.823Z,1.50
2023-06-11T14:32:10.203Z,1.38
2023-06-11T14:34:42.276Z,1.42
2023-06-11T14:37:12.468Z,1.20
2023-06-11T14:39:43.079Z,1.55
2023-06-11T14:42:13.945Z,1.45
2023-06-11T14:44:43.445Z,1.42
2023-06-11T14:47:12.637Z,1.58
2023-06-11T14:49:42.491Z,1.85
2023-06-11T14:52:16.126Z,1.25
2023-06-11T14:54:50.481Z,2.42
2023-06-11T14:57:32.321Z,1.75
2023-06-11T15:00:09.346Z,1.10
2023-06-11T15:02:38.659Z,1.58
2023-06-11T15:05:09.227Z,1.40
2023-06-11T15:07:38.989Z,1.63
2023-06-11T15:10:12.124Z,1.65
2023-06-11T15:12:42.992Z,1.50
2023-06-11T15:15:13.214Z,1.30
2023-06-11T15:17:42.425Z,1.38
2023-06-11T15:20:13.087Z,1.98
2023-06-11T15:22:43.253Z,1.35
2023-06-11T15:25:13.029Z,1.70
2023-06-11T15:27:43.712Z,2.15
2023-06-11T15:30:13.654Z,1.83
2023-06-11T15:32:43.208Z,1.63
2023-06-11T15:35:13.275Z,2.33
2023-06-11T15:37:42.424Z,1.30
2023-06-11T15:40:12.841Z,1.50
2023-06-11T15:42:44.905Z,1.30
2023-06-11T15:45:14.720Z,1.17
2023-06-11T15:47:44.400Z,1.15
2023-06-11T15:50:14.332Z,1.20
2023-06-11T15:52:43.983Z,2.20
2023-06-11T15:55:14.208Z,1.38
2023-06-11T15:57:45.581Z,1.15
2023-06-11T16:00:15.920Z,1.65
2023-06-11T16:02:45.209Z,1.55
2023-06-11T16:05:14.881Z,1.42
2023-06-11T16:07:44.144Z,1.80
2023-06-11T16:10:14.977Z,1.25
2023-06-11T16:12:46.361Z,1.30
2023-06-11T16:15:16.337Z,1.30
2023-06-11T16:17:48.039Z,1.33
2023-06-11T16:20:17.763Z,1.58
2023-06-11T16:22:46.869Z,1.80
2023-06-11T16:25:16.380Z,1.50
2023-06-11T16:27:46.870Z,1.40
2023-06-11T16:30:16.678Z,1.30
2023-06-11T16:32:45.841Z,1.50
2023-06-11T16:35:17.827Z,1.30
2023-06-11T16:37:47.210Z,1.20
2023-06-11T16:40:16.870Z,1.70
2023-06-11T16:42:47.415Z,1.30
2023-06-11T16:45:17.101Z,1.48
2023-06-11T16:47:46.214Z,1.52
2023-06-11T16:50:15.817Z,1.63
2023-06-11T16:52:48.280Z,1.20
2023-06-11T16:55:21.251Z,1.83
2023-06-11T16:57:52.625Z,3.88
2023-06-11T17:00:23.192Z,1.88
2023-06-11T17:02:55.929Z,2.20
2023-06-11T17:05:25.772Z,4.22
2023-06-11T17:07:58.396Z,2.53
2023-06-11T17:10:30.836Z,1.60
2023-06-11T17:13:01.548Z,1.60
2023-06-11T17:15:31.257Z,1.60
2023-06-11T17:18:00.821Z,1.95
2023-06-11T17:20:31.777Z,2.20
2023-06-11T17:23:02.006Z,2.38
2023-06-11T17:25:31.535Z,1.63
2023-06-11T17:28:02.414Z,2.03
2023-06-11T17:30:32.062Z,1.98
2023-06-11T17:33:01.758Z,1.67
2023-06-11T17:35:31.619Z,1.52
2023-06-11T17:38:00.847Z,1.88
2023-06-11T17:40:30.278Z,1.83
2023-06-11T17:43:01.886Z,1.40
2023-06-11T17:45:31.693Z,1.70
2023-06-11T17:48:01.536Z,1.70
2023-06-11T17:50:31.393Z,2.30
2023-06-11T17:53:02.020Z,2.00
2023-06-11T17:55:32.858Z,1.73
2023-06-11T17:58:05.591Z,2.00
2023-06-11T18:00:36.725Z,2.22
2023-06-11T18:03:06.882Z,2.20
2023-06-11T18:05:37.059Z,1.85
2023-06-11T18:08:06.720Z,2.10
2023-06-11T18:10:36.269Z,2.00
2023-06-11T18:13:08.844Z,2.05
2023-06-11T18:15:42.655Z,2.40
2023-06-11T18:18:12.528Z,2.05
2023-06-11T18:20:42.243Z,2.17
2023-06-11T18:23:11.962Z,2.42
2023-06-11T18:25:42.904Z,2.10
2023-06-11T18:28:14.898Z,3.05
2023-06-11T18:30:46.713Z,2.10
2023-06-11T18:33:19.118Z,2.20
2023-06-11T18:35:51.238Z,2.25
2023-06-11T18:38:23.454Z,2.40
2023-06-11T18:40:58.770Z,2.95
2023-06-11T18:43:30.487Z,2.15
2023-06-11T18:46:01.786Z,3.22
2023-06-11T18:48:31.762Z,2.90
2023-06-11T18:51:02.771Z,3.45
2023-06-11T18:53:32.031Z,2.55
2023-06-11T18:56:01.867Z,2.28
2023-06-11T18:58:34.067Z,2.38
2023-06-11T19:01:05.492Z,2.33
2023-06-11T19:03:40.556Z,2.22
2023-06-11T19:06:11.933Z,2.65
2023-06-11T19:08:45.356Z,4.70
2023-06-11T19:11:19.876Z,3.50
2023-06-11T19:13:54.440Z,3.22
2023-06-11T19:16:26.785Z,2.97
2023-06-11T19:18:57.623Z,4.95
2023-06-11T19:21:31.335Z,3.45
2023-06-11T19:24:01.957Z,2.55
2023-06-11T19:26:35.261Z,2.72
2023-06-11T19:29:06.328Z,2.90
2023-06-11T19:31:35.728Z,3.40
2023-06-11T19:34:05.540Z,2.33
2023-06-11T19:36:35.171Z,2.17
2023-06-11T19:39:04.846Z,2.20
2023-06-11T19:41:34.919Z,2.80
2023-06-11T19:44:05.698Z,1.98
2023-06-11T19:46:36.443Z,2.50
2023-06-11T19:49:07.057Z,1.98
2023-06-11T19:51:36.491Z,2.72
2023-06-11T19:54:06.219Z,2.55
2023-06-11T19:56:35.645Z,2.28
2023-06-11T20:01:35.618Z,2.55
2023-06-11T20:04:05.996Z,1.85
2023-06-11T20:06:35.783Z,2.25
2023-06-11T20:09:05.129Z,2.42
2023-06-11T20:11:35.372Z,2.03
2023-06-11T20:14:05.970Z,2.03
2023-06-11T20:16:35.826Z,1.95
2023-06-11T20:19:05.169Z,2.22
2023-06-11T20:21:34.601Z,2.60
2023-06-11T20:26:36.127Z,2.50
2023-06-11T20:29:06.871Z,2.85
2023-06-11T20:31:36.175Z,1.98
2023-06-11T20:36:34.973Z,2.10
2023-06-11T20:41:33.992Z,2.30
2023-06-11T20:49:02.812Z,2.78
2023-06-11T20:51:32.282Z,2.28
2023-06-11T20:56:30.889Z,2.53
2023-06-11T20:59:00.042Z,2.92
2023-06-11T21:01:30.438Z,2.35
2023-06-11T21:04:01.110Z,2.20
2023-06-11T21:06:30.573Z,2.47
2023-06-11T21:08:59.604Z,2.83
2023-06-11T21:11:29.639Z,3.38
2023-06-11T21:14:12.727Z,2.80
2023-06-11T21:16:43.645Z,2.90
2023-06-11T21:19:14.435Z,2.42
2023-06-11T21:21:44.102Z,3.10
2023-06-11T21:24:13.494Z,3.88
2023-06-11T21:26:42.936Z,2.90
2023-06-11T21:29:12.144Z,2.83
2023-06-11T21:31:43.472Z,3.65
2023-06-11T21:34:14.097Z,2.88
2023-06-11T21:36:43.405Z,2.80
2023-06-11T21:39:12.549Z,2.80
2023-06-11T21:44:10.750Z,3.00
2023-06-11T21:49:09.494Z,3.17
2023-06-11T21:54:09.289Z,3.67
2023-06-11T21:56:38.672Z,2.75
2023-06-11T21:59:07.761Z,3.72
2023-06-11T22:04:06.458Z,3.53
2023-06-11T22:06:42.990Z,4.03
2023-06-11T22:09:13.849Z,4.28
2023-06-11T22:11:43.904Z,4.63
2023-06-11T22:14:13.180Z,3.78
2023-06-11T22:16:46.847Z,3.58
2023-06-11T22:19:16.498Z,5.00
2023-06-11T22:21:46.064Z,3.78
2023-06-11T22:26:46.451Z,3.47
2023-06-11T22:29:15.424Z,2.88
2023-06-11T22:34:13.823Z,3.08
2023-06-11T22:36:43.249Z,3.65
2023-06-11T22:39:12.323Z,3.15
2023-06-11T22:41:43.113Z,3.33
2023-06-11T22:44:12.178Z,3.17
2023-06-11T22:49:12.582Z,3.15
2023-06-11T22:51:44.102Z,3.17
2023-06-11T22:54:13.732Z,3.05
2023-06-11T22:56:44.511Z,3.90
2023-06-11T22:59:16.136Z,3.40
2023-06-11T23:01:45.746Z,3.72
2023-06-11T23:04:14.898Z,3.35
2023-06-11T23:06:47.524Z,4.03
2023-06-11T23:09:17.032Z,3.53
2023-06-11T23:11:48.984Z,3.83
2023-06-11T23:14:18.203Z,3.85
2023-06-11T23:19:23.729Z,3.58
2023-06-11T23:21:57.490Z,3.72
2023-06-11T23:24:28.221Z,4.80
2023-06-11T23:27:02.425Z,4.00
2023-06-11T23:29:33.722Z,3.30
2023-06-11T23:32:03.777Z,3.95
2023-06-11T23:34:34.484Z,4.13
2023-06-11T23:37:04.028Z,3.83
2023-06-11T23:39:33.081Z,3.40
2023-06-11T23:42:03.883Z,3.45
2023-06-11T23:44:32.935Z,4.68
2023-06-11T23:47:02.336Z,4.07
2023-06-11T23:49:31.408Z,4.22
2023-06-11T23:52:00.756Z,3.90
2023-06-11T23:54:29.826Z,5.50
2023-06-11T23:56:59.490Z,3.58
2023-06-11T23:59:29.892Z,3.92
